createdAt,value
2023-04-16T00:02:04.229Z,101978.38
2023-04-16T00:04:34.173Z,101979.25
2023-04-16T00:07:02.810Z,101979.25
2023-04-16T00:09:30.042Z,101981.00
2023-04-16T00:11:57.031Z,101972.25
2023-04-16T00:14:24.052Z,101976.66
2023-04-16T00:16:51.339Z,101978.38
2023-04-16T00:19:18.645Z,101979.25
2023-04-16T00:21:45.893Z,101970.50
2023-04-16T00:24:13.346Z,101974.00
2023-04-16T00:26:40.999Z,101978.38
2023-04-16T00:29:08.540Z,101972.25
2023-04-16T00:31:37.194Z,101969.63
2023-04-16T00:34:04.426Z,101973.13
2023-04-16T00:36:31.697Z,101981.91
2023-04-16T00:38:58.883Z,101975.75
2023-04-16T00:41:26.962Z,101968.75
2023-04-16T00:43:54.167Z,101973.13
2023-04-16T00:46:23.975Z,101971.38
2023-04-16T00:48:54.299Z,101979.25
2023-04-16T00:51:22.615Z,101974.00
2023-04-16T00:53:49.931Z,101985.38
2023-04-16T00:56:17.971Z,101984.50
2023-04-16T00:58:45.318Z,101983.63
2023-04-16T01:01:14.460Z,101980.13
2023-04-16T01:03:49.138Z,101984.47
2023-04-16T01:06:18.383Z,101984.50
2023-04-16T01:08:46.857Z,101975.72
2023-04-16T01:11:15.695Z,101985.34
2023-04-16T01:13:42.922Z,101974.84
2023-04-16T01:16:12.502Z,101972.22
2023-04-16T01:18:39.825Z,101985.34
2023-04-16T01:21:07.254Z,101981.84
2023-04-16T01:23:34.537Z,101986.22
2023-04-16T01:26:02.678Z,101982.72
2023-04-16T01:28:30.696Z,101976.59
2023-04-16T01:30:57.777Z,101975.72
2023-04-16T01:33:37.722Z,101974.84
2023-04-16T01:36:04.881Z,101966.06
2023-04-16T01:38:31.977Z,101974.84
2023-04-16T01:40:59.669Z,101969.59
2023-04-16T01:43:26.781Z,101974.84
2023-04-16T01:46:15.129Z,101971.34
2023-04-16T01:48:42.956Z,101965.22
2023-04-16T01:51:10.203Z,101983.59
2023-04-16T01:53:37.485Z,101980.97
2023-04-16T01:56:05.050Z,101973.09
2023-04-16T01:58:33.672Z,101980.97
2023-04-16T02:01:01.108Z,101978.34
2023-04-16T02:03:28.465Z,101980.09
2023-04-16T02:05:55.662Z,101974.84
2023-04-16T02:08:23.741Z,101986.22
2023-04-16T02:10:50.951Z,101986.22
2023-04-16T02:13:18.129Z,101984.47
2023-04-16T02:15:49.492Z,101990.59
2023-04-16T02:18:21.465Z,101986.22
2023-04-16T02:20:49.800Z,101979.22
2023-04-16T02:23:17.779Z,101986.22
2023-04-16T02:25:47.439Z,101977.47
2023-04-16T02:28:17.194Z,101978.34
2023-04-16T02:30:46.203Z,101987.09
2023-04-16T02:33:15.534Z,101977.47
2023-04-16T02:35:53.217Z,101973.06
2023-04-16T02:38:20.290Z,101978.34
2023-04-16T02:40:47.274Z,101981.00
2023-04-16T02:43:14.206Z,101983.63
2023-04-16T02:45:41.504Z,101986.19
2023-04-16T02:48:09.667Z,101979.22
2023-04-16T02:50:36.706Z,101978.31
2023-04-16T02:53:04.385Z,101982.75
2023-04-16T02:55:31.426Z,101979.22
2023-04-16T02:57:58.411Z,101979.22
2023-04-16T03:00:25.658Z,101985.34
2023-04-16T03:02:52.838Z,101988.84
2023-04-16T03:05:20.041Z,101987.09
2023-04-16T03:07:47.087Z,101989.72
2023-04-16T03:10:15.464Z,101987.97
2023-04-16T03:12:42.509Z,101992.34
2023-04-16T03:15:10.484Z,101990.63
2023-04-16T03:17:37.457Z,101992.34
2023-04-16T03:20:05.489Z,101997.63
2023-04-16T03:22:33.701Z,102001.13
2023-04-16T03:25:00.710Z,102002.88
2023-04-16T03:27:27.706Z,102004.63
2023-04-16T03:29:55.204Z,102005.50
2023-04-16T03:32:22.372Z,102006.38
2023-04-16T03:34:49.379Z,102001.97
2023-04-16T03:37:16.934Z,101999.34
2023-04-16T03:39:44.364Z,102001.09
2023-04-16T03:42:12.056Z,101999.34
2023-04-16T03:44:39.064Z,102001.13
2023-04-16T03:47:06.114Z,101999.34
2023-04-16T03:49:33.146Z,102004.59
2023-04-16T03:52:00.273Z,102013.38
2023-04-16T03:54:27.339Z,102007.25
2023-04-16T03:57:06.179Z,102004.63
2023-04-16T03:59:33.743Z,102014.25
2023-04-16T04:02:00.940Z,102011.63
2023-04-16T04:04:28.203Z,102012.50
2023-04-16T04:06:55.606Z,102009.00
2023-04-16T04:09:23.708Z,102013.41
2023-04-16T04:11:50.930Z,102012.50
2023-04-16T04:14:18.118Z,102009.00
2023-04-16T04:16:45.157Z,102011.63
2023-04-16T04:19:12.564Z,102002.88
2023-04-16T04:21:39.758Z,102008.13
2023-04-16T04:24:06.963Z,102011.63
2023-04-16T04:26:34.753Z,102013.41
2023-04-16T04:29:01.758Z,102013.38
2023-04-16T04:31:30.311Z,102021.25
2023-04-16T04:33:57.369Z,102027.41
2023-04-16T04:36:24.418Z,102023.00
2023-04-16T04:38:51.807Z,102023.91
2023-04-16T04:41:21.361Z,102036.16
2023-04-16T04:43:48.275Z,102036.16
2023-04-16T04:46:16.711Z,102030.03
2023-04-16T04:48:43.745Z,102032.66
2023-04-16T04:51:10.966Z,102037.06
2023-04-16T04:53:37.990Z,102046.66
2023-04-16T04:56:12.377Z,102037.91
2023-04-16T04:58:41.478Z,102045.81
2023-04-16T05:01:08.579Z,102041.44
2023-04-16T05:03:36.077Z,102047.53
2023-04-16T05:06:03.154Z,102044.91
2023-04-16T05:08:30.151Z,102051.94
2023-04-16T05:10:57.093Z,102053.69
2023-04-16T05:13:24.377Z,102055.44
2023-04-16T05:15:51.382Z,102065.06
2023-04-16T05:18:18.398Z,102058.94
2023-04-16T05:20:45.424Z,102059.81
2023-04-16T05:23:12.475Z,102065.94
2023-04-16T05:25:39.518Z,102053.66
2023-04-16T05:28:07.048Z,102062.41
2023-04-16T05:30:34.123Z,102062.44
2023-04-16T05:33:01.214Z,102063.31
2023-04-16T05:35:28.257Z,102072.06
2023-04-16T05:37:55.420Z,102064.19
2023-04-16T05:40:22.431Z,102069.44
2023-04-16T05:42:49.537Z,102072.06
2023-04-16T05:45:16.553Z,102062.41
2023-04-16T05:47:43.856Z,102072.91
2023-04-16T05:50:11.248Z,102070.28
2023-04-16T05:52:38.698Z,102068.53
2023-04-16T05:55:07.213Z,102067.66
2023-04-16T05:57:34.186Z,102070.28
2023-04-16T06:00:01.133Z,102072.03
2023-04-16T06:02:30.534Z,102072.00
2023-04-16T06:04:57.620Z,102085.16
2023-04-16T06:07:24.589Z,102078.97
2023-04-16T06:09:51.619Z,102079.84
2023-04-16T06:12:18.612Z,102082.47
2023-04-16T06:14:45.572Z,102085.94
2023-04-16T06:17:12.554Z,102091.19
2023-04-16T06:19:39.605Z,102088.53
2023-04-16T06:22:07.142Z,102094.66
2023-04-16T06:24:34.180Z,102096.41
2023-04-16T06:27:01.119Z,102094.66
2023-04-16T06:29:40.716Z,102097.31
2023-04-16T06:32:08.554Z,102107.81
2023-04-16T06:34:36.141Z,102109.59
2023-04-16T06:37:03.117Z,102116.56
2023-04-16T06:39:30.947Z,102117.44
2023-04-16T06:41:58.024Z,102125.38
2023-04-16T06:44:25.041Z,102128.00
2023-04-16T06:46:51.998Z,102130.66
2023-04-16T06:49:18.974Z,102132.41
2023-04-16T06:51:46.044Z,102128.00
2023-04-16T06:54:13.042Z,102125.41
2023-04-16T06:56:40.024Z,102134.16
2023-04-16T06:59:07.852Z,102142.94
2023-04-16T07:01:35.536Z,102141.19
2023-04-16T07:04:03.695Z,102137.66
2023-04-16T07:06:31.876Z,102142.06
2023-04-16T07:08:58.907Z,102143.81
2023-04-16T07:11:26.548Z,102152.59
2023-04-16T07:13:54.868Z,102141.16
2023-04-16T07:16:21.897Z,102150.81
2023-04-16T07:18:49.729Z,102155.16
2023-04-16T07:21:16.820Z,102150.75
2023-04-16T07:23:43.826Z,102159.53
2023-04-16T07:26:11.844Z,102152.50
2023-04-16T07:28:38.838Z,102157.75
2023-04-16T07:31:06.108Z,102158.63
2023-04-16T07:33:33.200Z,102164.75
2023-04-16T07:36:00.234Z,102163.88
2023-04-16T07:38:27.206Z,102163.81
2023-04-16T07:40:56.754Z,102169.09
2023-04-16T07:43:23.800Z,102169.97
2023-04-16T07:45:50.864Z,102173.44
2023-04-16T07:48:17.899Z,102175.16
2023-04-16T07:50:45.051Z,102181.28
2023-04-16T07:53:12.069Z,102173.34
2023-04-16T07:55:39.052Z,102176.84
2023-04-16T07:58:07.803Z,102181.22
2023-04-16T08:00:35.275Z,102183.75
2023-04-16T08:03:02.463Z,102183.66
2023-04-16T08:05:29.576Z,102179.97
2023-04-16T08:07:56.628Z,102194.00
2023-04-16T08:10:23.717Z,102197.47
2023-04-16T08:12:53.820Z,102200.81
2023-04-16T08:15:21.074Z,102203.31
2023-04-16T08:17:48.073Z,102199.72
2023-04-16T08:20:17.611Z,102212.06
2023-04-16T08:22:46.729Z,102205.06
2023-04-16T08:25:14.787Z,102205.97
2023-04-16T08:27:41.827Z,102210.34
2023-04-16T08:30:08.950Z,102216.50
2023-04-16T08:32:35.920Z,102216.47
2023-04-16T08:35:02.999Z,102213.66
2023-04-16T08:37:29.957Z,102223.19
2023-04-16T08:39:56.972Z,102224.97
2023-04-16T08:42:44.761Z,102232.09
2023-04-16T08:45:17.662Z,102229.44
2023-04-16T08:47:52.806Z,102231.84
2023-04-16T08:50:26.048Z,102232.50
2023-04-16T08:53:06.699Z,102238.53
2023-04-16T08:55:51.365Z,102233.25
2023-04-16T08:58:22.809Z,102239.59
2023-04-16T09:00:51.051Z,102246.69
2023-04-16T09:03:21.557Z,102249.44
2023-04-16T09:05:50.470Z,102246.84
2023-04-16T09:08:18.217Z,102248.69
2023-04-16T09:10:45.794Z,102246.03
2023-04-16T09:13:16.523Z,102246.81
2023-04-16T09:15:44.414Z,102245.75
2023-04-16T09:18:12.222Z,102247.47
2023-04-16T09:20:39.737Z,102250.09
2023-04-16T09:23:06.669Z,102248.41
2023-04-16T09:25:38.469Z,102252.78
2023-04-16T09:28:05.800Z,102254.56
2023-04-16T09:30:33.446Z,102251.91
2023-04-16T09:33:12.427Z,102259.75
2023-04-16T09:35:48.332Z,102265.03
2023-04-16T09:38:15.958Z,102260.41
2023-04-16T09:40:43.189Z,102256.81
2023-04-16T09:43:18.984Z,102259.25
2023-04-16T09:45:55.111Z,102267.03
2023-04-16T09:48:33.744Z,102261.53
2023-04-16T09:51:01.297Z,102261.31
2023-04-16T09:53:31.463Z,102257.53
2023-04-16T09:56:00.374Z,102264.28
2023-04-16T09:58:28.551Z,102264.56
2023-04-16T10:01:01.564Z,102257.81
2023-04-16T10:03:34.830Z,102262.47
2023-04-16T10:06:20.589Z,102261.50
2023-04-16T10:08:53.849Z,102266.59
2023-04-16T10:11:21.366Z,102265.63
2023-04-16T10:13:49.097Z,102269.00
2023-04-16T10:16:16.660Z,102259.88
2023-04-16T10:18:46.116Z,102264.31
2023-04-16T10:21:13.130Z,102267.13
2023-04-16T10:23:40.595Z,102256.44
2023-04-16T10:26:08.475Z,102264.16
2023-04-16T10:28:36.261Z,102263.94
2023-04-16T10:31:09.397Z,102255.75
2023-04-16T10:33:44.220Z,102264.63
2023-04-16T10:36:24.553Z,102269.13
2023-04-16T10:38:53.007Z,102264.88
2023-04-16T10:41:21.092Z,102263.56
2023-04-16T10:43:50.944Z,102265.03
2023-04-16T10:46:38.954Z,102260.31
2023-04-16T10:49:22.808Z,102255.19
2023-04-16T10:51:54.329Z,102266.84
2023-04-16T10:54:29.226Z,102264.97
2023-04-16T10:57:00.721Z,102254.63
2023-04-16T10:59:33.655Z,102255.72
2023-04-16T11:02:07.433Z,102245.72
2023-04-16T11:04:39.804Z,102247.28
2023-04-16T11:07:16.474Z,102238.13
2023-04-16T11:10:02.060Z,102249.69
2023-04-16T11:12:47.300Z,102247.22
2023-04-16T11:15:16.153Z,102241.06
2023-04-16T11:17:50.610Z,102244.63
2023-04-16T11:20:21.592Z,102244.44
2023-04-16T11:22:50.653Z,102250.81
2023-04-16T11:25:31.508Z,102244.34
2023-04-16T11:27:59.179Z,102241.53
2023-04-16T11:30:35.511Z,102232.78
2023-04-16T11:33:16.503Z,102231.81
2023-04-16T11:35:43.571Z,102230.69
2023-04-16T11:38:10.612Z,102231.97
2023-04-16T11:40:37.566Z,102229.25
2023-04-16T11:43:16.325Z,102234.34
2023-04-16T11:46:10.267Z,102243.75
2023-04-16T11:48:55.532Z,102243.44
2023-04-16T11:51:23.510Z,102237.53
2023-04-16T11:53:53.198Z,102242.41
2023-04-16T11:56:30.710Z,102232.81
2023-04-16T11:59:18.002Z,102237.28
2023-04-16T12:01:51.456Z,102242.34
2023-04-16T12:04:21.536Z,102240.63
2023-04-16T12:07:12.936Z,102241.47
2023-04-16T12:09:44.149Z,102250.56
2023-04-16T12:12:32.416Z,102253.84
2023-04-16T12:15:03.807Z,102250.31
2023-04-16T12:17:33.841Z,102253.97
2023-04-16T12:20:07.907Z,102256.69
2023-04-16T12:22:38.718Z,102261.00
2023-04-16T12:25:10.734Z,102263.09
2023-04-16T12:27:51.328Z,102268.09
2023-04-16T12:30:26.080Z,102262.59
2023-04-16T12:33:17.154Z,102269.41
2023-04-16T12:35:45.015Z,102269.03
2023-04-16T12:38:12.396Z,102266.50
2023-04-16T12:40:39.381Z,102274.63
2023-04-16T12:43:06.575Z,102263.38
2023-04-16T12:45:33.578Z,102267.13
2023-04-16T12:48:00.678Z,102260.34
2023-04-16T12:50:28.854Z,102272.00
2023-04-16T12:52:57.405Z,102265.97
2023-04-16T12:55:25.534Z,102268.63
2023-04-16T12:57:55.618Z,102272.31
2023-04-16T13:00:23.028Z,102275.03
2023-04-16T13:02:50.190Z,102274.19
2023-04-16T13:05:19.250Z,102263.78
2023-04-16T13:07:46.526Z,102268.31
2023-04-16T13:10:13.825Z,102270.06
2023-04-16T13:12:41.007Z,102268.25
2023-04-16T13:15:09.333Z,102275.25
2023-04-16T13:17:36.382Z,102259.28
2023-04-16T13:20:03.708Z,102265.34
2023-04-16T13:22:30.923Z,102267.09
2023-04-16T13:24:57.876Z,102272.47
2023-04-16T13:27:24.908Z,102266.19
2023-04-16T13:29:51.900Z,102271.47
2023-04-16T13:32:19.387Z,102271.44
2023-04-16T13:34:46.496Z,102269.53
2023-04-16T13:37:13.606Z,102269.25
2023-04-16T13:39:40.634Z,102267.97
2023-04-16T13:42:07.606Z,102270.38
2023-04-16T13:44:34.864Z,102263.34
2023-04-16T13:47:01.894Z,102275.03
2023-04-16T13:49:28.928Z,102268.00
2023-04-16T13:51:55.992Z,102269.81
2023-04-16T13:54:22.883Z,102266.69
2023-04-16T13:56:51.271Z,102269.63
2023-04-16T13:59:18.730Z,102261.72
2023-04-16T14:01:45.888Z,102264.25
2023-04-16T14:04:12.929Z,102272.06
2023-04-16T14:06:40.012Z,102256.88
2023-04-16T14:09:06.985Z,102255.09
2023-04-16T14:11:33.947Z,102260.50
2023-04-16T14:14:00.920Z,102267.63
2023-04-16T14:16:27.969Z,102266.88
2023-04-16T14:18:54.990Z,102264.28
2023-04-16T14:21:22.056Z,102276.78
2023-04-16T14:23:49.595Z,102266.28
2023-04-16T14:26:16.600Z,102275.00
2023-04-16T14:28:44.790Z,102270.25
2023-04-16T14:31:11.771Z,102265.34
2023-04-16T14:33:38.767Z,102250.81
2023-04-16T14:36:06.387Z,102263.81
2023-04-16T14:38:36.157Z,102262.72
2023-04-16T14:41:03.400Z,102263.44
2023-04-16T14:43:30.902Z,102268.94
2023-04-16T14:45:58.939Z,102262.06
2023-04-16T14:48:27.339Z,102269.97
2023-04-16T14:50:54.337Z,102270.09
2023-04-16T14:53:23.840Z,102269.44
2023-04-16T14:55:53.301Z,102265.38
2023-04-16T14:58:20.452Z,102269.88
2023-04-16T15:00:47.418Z,102272.44
2023-04-16T15:03:14.883Z,102274.13
2023-04-16T15:05:44.655Z,102274.97
2023-04-16T15:08:11.676Z,102264.28
2023-04-16T15:10:38.669Z,102282.69
2023-04-16T15:13:05.896Z,102267.44
2023-04-16T15:15:32.930Z,102276.22
2023-04-16T15:18:00.401Z,102270.75
2023-04-16T15:20:27.953Z,102269.94
2023-04-16T15:22:55.185Z,102276.28
2023-04-16T15:25:23.367Z,102279.84
2023-04-16T15:27:50.306Z,102273.81
2023-04-16T15:30:17.566Z,102281.16
2023-04-16T15:32:45.308Z,102269.78
2023-04-16T15:35:14.126Z,102285.84
2023-04-16T15:37:41.085Z,102279.13
2023-04-16T15:40:08.595Z,102277.41
2023-04-16T15:42:35.618Z,102281.88
2023-04-16T15:45:02.632Z,102279.28
2023-04-16T15:47:29.721Z,102277.78
2023-04-16T15:49:56.678Z,102272.63
2023-04-16T15:52:23.668Z,102275.44
2023-04-16T15:54:50.753Z,102285.34
2023-04-16T15:57:17.708Z,102275.88
2023-04-16T15:59:52.928Z,102282.41
2023-04-16T16:02:31.908Z,102278.22
2023-04-16T16:05:00.294Z,102282.88
2023-04-16T16:07:27.336Z,102287.31
2023-04-16T16:09:54.301Z,102283.97
2023-04-16T16:12:21.626Z,102287.69
2023-04-16T16:14:49.422Z,102283.34
2023-04-16T16:17:16.650Z,102294.06
2023-04-16T16:19:45.215Z,102302.25
2023-04-16T16:22:13.966Z,102296.28
2023-04-16T16:24:40.976Z,102309.66
2023-04-16T16:27:07.993Z,102296.59
2023-04-16T16:29:35.106Z,102300.19
2023-04-16T16:32:02.119Z,102302.69
2023-04-16T16:34:29.211Z,102310.50
2023-04-16T16:36:56.306Z,102309.44
2023-04-16T16:39:25.242Z,102305.69
2023-04-16T16:41:52.769Z,102313.53
2023-04-16T16:44:20.817Z,102309.22
2023-04-16T16:46:48.088Z,102309.41
2023-04-16T16:49:16.831Z,102308.53
2023-04-16T16:51:49.894Z,102308.63
2023-04-16T16:54:16.833Z,102306.94
2023-04-16T16:56:43.933Z,102313.97
2023-04-16T16:59:11.631Z,102301.69
2023-04-16T17:01:38.978Z,102308.78
2023-04-16T17:04:06.180Z,102309.75
2023-04-16T17:06:33.594Z,102308.94
2023-04-16T17:09:00.970Z,102317.78
2023-04-16T17:11:29.253Z,102316.03
2023-04-16T17:13:56.263Z,102312.59
2023-04-16T17:16:23.952Z,102312.56
2023-04-16T17:18:57.246Z,102309.06
2023-04-16T17:21:24.971Z,102313.53
2023-04-16T17:23:52.032Z,102304.75
2023-04-16T17:26:19.081Z,102306.56
2023-04-16T17:28:46.252Z,102303.97
2023-04-16T17:31:13.285Z,102308.38
2023-04-16T17:33:40.272Z,102313.72
2023-04-16T17:36:08.094Z,102313.75
2023-04-16T17:38:35.129Z,102312.91
2023-04-16T17:41:02.167Z,102318.25
2023-04-16T17:43:29.130Z,102313.84
2023-04-16T17:45:57.229Z,102320.94
2023-04-16T17:48:24.196Z,102306.84
2023-04-16T17:50:51.143Z,102316.59
2023-04-16T17:53:18.156Z,102321.03
2023-04-16T17:55:56.543Z,102325.47
2023-04-16T17:58:26.270Z,102319.34
2023-04-16T18:00:53.316Z,102324.66
2023-04-16T18:03:22.078Z,102320.31
2023-04-16T18:05:49.435Z,102325.63
2023-04-16T18:08:16.623Z,102321.25
2023-04-16T18:10:43.645Z,102330.09
2023-04-16T18:13:10.938Z,102330.16
2023-04-16T18:15:38.403Z,102328.47
2023-04-16T18:18:05.992Z,102325.03
2023-04-16T18:20:33.297Z,102324.19
2023-04-16T18:23:01.232Z,102328.66
2023-04-16T18:25:34.491Z,102328.72
2023-04-16T18:28:03.761Z,102323.50
2023-04-16T18:30:30.892Z,102327.09
2023-04-16T18:35:27.828Z,102329.88
2023-04-16T18:37:54.755Z,102333.50
2023-04-16T18:40:21.789Z,102330.06
2023-04-16T18:42:48.803Z,102340.66
2023-04-16T18:45:21.149Z,102337.22
2023-04-16T18:47:50.253Z,102343.41
2023-04-16T18:50:17.317Z,102348.69
2023-04-16T18:52:44.440Z,102351.38
2023-04-16T18:55:11.394Z,102358.47
2023-04-16T18:57:38.439Z,102357.63
2023-04-16T19:00:12.529Z,102363.78
2023-04-16T19:02:40.121Z,102370.84
2023-04-16T19:05:08.857Z,102371.75
2023-04-16T19:07:37.026Z,102370.00
2023-04-16T19:10:05.340Z,102370.00
2023-04-16T19:12:32.552Z,102373.53
2023-04-16T19:14:59.881Z,102377.06
2023-04-16T19:17:26.961Z,102380.59
2023-04-16T19:19:54.003Z,102383.22
2023-04-16T19:22:21.116Z,102380.59
2023-04-16T19:24:48.165Z,102377.97
2023-04-16T19:27:15.689Z,102384.97
2023-04-16T19:29:43.493Z,102383.22
2023-04-16T19:32:10.810Z,102384.09
2023-04-16T19:34:38.583Z,102383.22
2023-04-16T19:37:05.720Z,102381.47
2023-04-16T19:39:33.297Z,102384.09
2023-04-16T19:42:01.754Z,102384.09
2023-04-16T19:44:28.783Z,102385.84
2023-04-16T19:46:56.246Z,102392.88
2023-04-16T19:49:25.212Z,102397.25
2023-04-16T19:51:52.631Z,102399.00
2023-04-16T19:54:19.769Z,102399.88
2023-04-16T19:56:51.629Z,102399.88
2023-04-16T19:59:19.116Z,102399.00
2023-04-16T20:01:46.789Z,102400.78
2023-04-16T20:04:13.874Z,102405.16
2023-04-16T20:06:40.914Z,102404.28
2023-04-16T20:09:07.880Z,102401.63
2023-04-16T20:11:35.499Z,102407.75
2023-04-16T20:14:02.467Z,102422.72
2023-04-16T20:16:30.137Z,102410.41
2023-04-16T20:19:03.264Z,102413.03
2023-04-16T20:21:31.980Z,102419.16
2023-04-16T20:23:59.526Z,102420.94
2023-04-16T20:26:33.513Z,102411.28
2023-04-16T20:29:00.852Z,102409.53
2023-04-16T20:31:28.683Z,102420.94
2023-04-16T20:33:55.785Z,102412.16
2023-04-16T20:36:22.770Z,102420.94
2023-04-16T20:38:51.109Z,102418.31
2023-04-16T20:41:22.441Z,102411.28
2023-04-16T20:43:50.295Z,102415.69
2023-04-16T20:46:17.800Z,102413.91
2023-04-16T20:48:44.977Z,102413.06
2023-04-16T20:51:12.253Z,102408.66
2023-04-16T20:53:39.314Z,102415.66
2023-04-16T20:56:06.912Z,102413.91
2023-04-16T20:58:33.984Z,102410.41
2023-04-16T21:01:01.414Z,102417.44
2023-04-16T21:03:28.586Z,102408.63
2023-04-16T21:05:55.947Z,102420.06
2023-04-16T21:08:23.956Z,102422.69
2023-04-16T21:10:51.359Z,102425.31
2023-04-16T21:13:20.662Z,102419.19
2023-04-16T21:15:47.787Z,102418.31
2023-04-16T21:18:14.937Z,102426.19
2023-04-16T21:20:41.871Z,102420.94
2023-04-16T21:23:08.876Z,102415.69
2023-04-16T21:25:35.983Z,102418.31
2023-04-16T21:28:02.957Z,102417.44
2023-04-16T21:30:29.959Z,102424.44
2023-04-16T21:32:56.935Z,102417.41
2023-04-16T21:35:23.980Z,102413.91
2023-04-16T21:37:50.929Z,102413.03
2023-04-16T21:40:18.034Z,102415.66
2023-04-16T21:42:45.086Z,102418.31
2023-04-16T21:45:14.408Z,102417.41
2023-04-16T21:47:41.486Z,102415.66
2023-04-16T21:50:08.981Z,102420.06
2023-04-16T21:52:40.565Z,102409.53
2023-04-16T21:55:09.473Z,102410.41
2023-04-16T21:57:36.456Z,102408.66
2023-04-16T22:00:09.102Z,102415.66
2023-04-16T22:02:36.436Z,102416.53
2023-04-16T22:05:03.814Z,102411.28
2023-04-16T22:07:30.804Z,102413.03
2023-04-16T22:09:57.801Z,102413.91
2023-04-16T22:12:24.985Z,102416.53
2023-04-16T22:15:01.935Z,102409.53
2023-04-16T22:17:30.155Z,102407.78
2023-04-16T22:20:00.380Z,102406.88
2023-04-16T22:22:27.410Z,102400.75
2023-04-16T22:24:54.480Z,102406.03
2023-04-16T22:27:21.890Z,102403.41
2023-04-16T22:29:48.980Z,102399.00
2023-04-16T22:32:16.445Z,102407.78
2023-04-16T22:34:43.491Z,102397.25
2023-04-16T22:37:10.749Z,102400.75
2023-04-16T22:39:37.778Z,102395.50
2023-04-16T22:42:04.906Z,102395.50
2023-04-16T22:44:31.929Z,102392.88
2023-04-16T22:46:59.180Z,102402.53
2023-04-16T22:49:26.586Z,102400.78
2023-04-16T22:51:53.589Z,102396.38
2023-04-16T22:54:20.754Z,102393.75
2023-04-16T22:56:48.572Z,102388.50
2023-04-16T22:59:15.968Z,102392.88
2023-04-16T23:01:43.111Z,102390.22
2023-04-16T23:04:10.317Z,102388.47
2023-04-16T23:06:37.423Z,102384.13
2023-04-16T23:09:05.253Z,102387.63
2023-04-16T23:11:32.371Z,102385.88
2023-04-16T23:13:59.422Z,102389.34
2023-04-16T23:16:27.244Z,102398.09
2023-04-16T23:18:54.815Z,102400.72
2023-04-16T23:21:22.916Z,102401.59
2023-04-16T23:23:50.236Z,102398.13
2023-04-16T23:26:17.214Z,102398.13
2023-04-16T23:28:44.193Z,102397.25
2023-04-16T23:31:11.281Z,102399.88
2023-04-16T23:33:38.291Z,102409.50
2023-04-16T23:36:05.878Z,102412.16
2023-04-16T23:38:32.949Z,102410.38
2023-04-16T23:41:00.114Z,102413.03
2023-04-16T23:43:27.137Z,102410.41
2023-04-16T23:45:54.123Z,102416.53
2023-04-16T23:48:21.276Z,102413.91
2023-04-16T23:50:48.370Z,102408.63
2023-04-16T23:53:15.660Z,102410.38
2023-04-16T23:55:42.683Z,102411.25
2023-04-16T23:58:09.684Z,102408.63
